Logo AVAMET
Benvolgut visitant, si us plau, ingressa Recuperar contrasenya

Onda centre

Dades diàries. Acumulats / Últims 30 dies disponibles

Data Temperatura (°C) Humitat rel. (%) Pressió rel. (hPa) Vent (km/h) Precipitació
Mínima Mitjana Màxima Amplitud
tèrmica
Mínima Mitjana Màxima Mínima Mitjana Màxima Predom. Mitjana Ràfega
màxima
Total
(mm)
Índex-n
Mínima Mitjana Màxima Mínima Mitjana Màxima n
0 a 1
P0 max
mm 5'
Dades mensuals acumulades fins l'últim dia disponible
11/2019 5,2 11,6 18,5 15,1 15,2 19,1 27,5 22,3 26 47 91 996 1.009 1.020   3,9 31,4 0,0
Dades anuals acumulades fins l'últim dia disponible
2019 3,1 14,3 25,5 18,6 11,6 23,6 38,5 35,4 15 59 100 990 1.017 1.036   3,4 50,0 344,8
Últims 30 dies disponibles
19-11-2019 5,2     10,1     15,3 10,1 35 48 61 1.014 1.016 1.017 SSE 2,5 16,6 0,0
18-11-2019 8,6     12,2     15,9 7,3 34 50 65 1.006 1.011 1.016 SSE 2,2 16,6 0,0
17-11-2019 8,6     12,9     18,2 9,6 35 43 51 1.007 1.011 1.013 S 3,1 16,6 0,0
16-11-2019 6,9     10,7     16,1 9,2 30 45 60 1.006 1.011 1.014 SE 2,9 18,5 0,0
15-11-2019 8,9     11,3     15,2 6,3 35 50 65 998 1.002 1.005 S 3,9 22,2 0,0
14-11-2019 9,3     12,1     15,6 6,3 36 56 75 998 1.001 1.009 S 3,4 22,2 0,0
13-11-2019 10,5     14,3     19,2 8,7 35 63 91 1.004 1.007 1.011 S 2,1 14,8 0,0
12-11-2019 12,0     14,7     18,4 6,4 33 38 43 1.008 1.010 1.013 SSE 5,6 18,5 0,0
11-11-2019 9,9     13,5     18,1 8,2 34 41 48 1.009 1.012 1.015 SSE 4,4 14,8 0,0
10-11-2019 10,8     13,1     16,2 5,4 34 43 51 1.009 1.011 1.013 SSE 5,3 24,1 0,0
09-11-2019 12,1     14,8     17,6 5,5 34 41 47 1.012 1.015 1.017 S 6,2 24,1 0,0
08-11-2019 10,6     13,6     17,4 6,8 30 38 46 1.007 1.011 1.015 SSE 6,0 31,4 0,0
07-11-2019 12,2     16,3     21,4 9,2 30 46 62 1.005 1.008 1.011 S 3,9 20,4 0,0
06-11-2019 13,1     16,4     19,2 6,1 35 41 47 1.010 1.012 1.013 SSE 5,4 27,8 0,0
05-11-2019 14,5     17,4     19,8 5,3 33 43 53 1.003 1.007 1.011 SSE 5,5 24,1 0,0
04-11-2019 14,5     19,5     23,4 8,9 37 55 73 1.004 1.006 1.009 S 3,9 25,9 0,0
03-11-2019 18,0     20,3     22,8 4,8 26 45 63 996 1.002 1.008 SSE 5,2 27,8 0,0
02-11-2019 18,5     21,7     27,5 9,0 32 52 72 1.002 1.007 1.012 SSO 2,2 20,4 0,0
01-11-2019 16,9     21,5     26,5 9,6 43 58 73 1.012 1.016 1.020 ESE 1,0 12,9 0,0
31-10-2019 17,2     21,3     26,2 9,0 34 54 73 1.018 1.020 1.021 SSE 2,1 16,6 0,0
30-10-2019 15,6     19,4     24,5 8,9 46 70 94 1.018 1.020 1.021 SE 2,9 20,4 0,0
29-10-2019 14,1     17,5     23,4 9,3 60 47 94 1.014 1.017 1.020 S 2,5 12,9 0,0
28-10-2019 14,5     16,7     20,0 5,5 80 88 95 1.016 1.018 1.020 S 1,6 9,3 0,0
27-10-2019 13,7     17,2     21,7 8,0 66 81 95 1.020 1.021 1.023 SSE 2,9 16,6 0,0
26-10-2019 13,3     17,2     21,9 8,6 54 74 93 1.020 1.021 1.023 SSE 1,9 16,6 0,0
25-10-2019 13,2     17,7     23,2 10,0 36 56 75 1.020 1.021 1.023 SE 2,2 14,8 0,0
24-10-2019 11,3     15,9     21,4 10,1 37 54 70 1.008 1.015 1.021 S 2,2 16,6 0,0
23-10-2019 10,1     14,6     19,8 9,7 36 67 97 1.004 1.006 1.009 SSO 2,8 18,5 0,0
22-10-2019 11,7     13,4     14,7 3,0 70 84 97 1.005 1.011 1.019 S 2,6 14,8 19,3 0,50
21-10-2019 11,3     15,1     19,9 8,6 50 62 74 1.013 1.016 1.019 SE 2,4 16,6 0,0
Últims 13 mesos disponibles
10/2019 10,1 15,7 19,3 19,4 14,7 24,1 29,0 18,9 44 66 88 1.006 1.016 1.021 SE 2,6 24,1 19,7
09/2019 14,8 19,0 22,7 22,8 21,6 27,6 31,8 17,0 52 70 80 1.009 1.018 1.026 SE 2,6 31,4 65,9
08/2019 17,9 21,2 25,5 25,6 24,9 30,6 36,1 18,2 49 68 84 1.010 1.016 1.020 SE 3,1 29,6 74,4
07/2019 20,1 21,7 24,6 26,5 27,3 31,4 35,5 15,4 31 57 73 1.005 1.014 1.021 SE 3,8 29,6 19,9
06/2019 11,0 17,5 23,0 22,5 21,6 27,7 38,5 27,5 30 55 72 1.008 1.015 1.022 SE 3,8 31,4 0,0
05/2019 9,6 13,6 17,4 17,9 17,9 22,9 29,2 19,6 48 61 85 1.004 1.015 1.024 SE 3,3 38,9 26,3
04/2019 7,1 11,1 14,7 14,9 14,9 19,5 27,6 20,5 30 60 93 998 1.013 1.025 S 3,8 50,0 112,2
03/2019 6,6 9,8 15,5 14,4 11,6 20,2 27,2 20,6 29 49 92 1.010 1.023 1.030 SSE 3,7 30,5 25,8
02/2019 3,9 7,6 12,7 12,0 12,9 18,0 25,7 21,8 25 58 81 993 1.025 1.034 SSE 3,7 40,7 0,0
01/2019 3,1 6,7 9,8 11,5 12,6 16,4 20,7 17,6 33 52 73 1.002 1.019 1.031 45,0 0,6
12/2018 6,1 9,4 14,7 13,5 13,5 18,0 24,5 18,4 42 65 86 1.009 1.025 1.030 SSE 0,1 22,0 14,3
11/2018 7,6 11,0 15,1 14,6 13,8 18,3 23,9 16,3 40 72 100 1.002 1.015 1.024 32,0 111,5
10/2018 7,9 14,2 17,5 18,3 14,0 22,4 27,7 19,8 31 68 97 1.000 1.014 1.026 37,0 273,0
Tots els anys disponibles
2018 1,4 14,0 26,1 18,3 8,2 22,7 35,7 34,3 26 61 100 993 1.016 1.035 0,0 41,0 752,5
2017 0,0 13,7 23,7 18,2 7,9 22,8 36,7 36,7 25 59 93 995 1.019 1.036 0,0 44,0 433,7
2016 2,8 13,9 26,0 18,2 10,3 22,6 35,8 33,0 41 57 69 1.014 1.017 1.027 76,0 557,3
2015 1,0 13,9 25,0 17,2 8,0 22,9 40,6 39,6 17 53 87 1.004 1.022 1.037 43,0 747,6
2014 2,3 14,3 24,7 19,1 12,0 24,0 34,9 32,6 55,0 351,2
2013 417,4
2012 327,8
2011 703,6
Temperatura (°C)
Humitat relativa (%)
Velocitat del vent i ràfega màxima (km/h)
Direcció del vent (°)
Pressió (hPa)
Precipitació (mm)
Nota sobre les dades: s'avisa a l'usuari de la provisionalitat i no oficialitat d'aquestes dades
Logo AVAMET blanc
Web allotjada a Sollutia
Llicència de Creative CommonsLa web d'AVAMET i els seus continguts estan subjectes a una llicència de
Reconeixement - No Comercial - Compartir igual
Últimes estacions: Xàbia - Alt de la Granadella (Soci), Villena - Sierra de Salinas (Soci), Sueca - Centre (Inforatge), Xàbia - La Plana (Soci), - - -